Time;durP1;ratioP1;P1;durP2;ratioP2;P2;SDS_P1;SDS_P2;PMS_P1;PMS_P2;Temp;Humidity;BMP_temperature;BMP_pressure;BME280_temperature;BME280_humidity;BME280_pressure;Samples;Min_cycle;Max_cycle;Signal;HPM_P1;HPM_P2
2021/06/17 00:00:01;;;;;;;13.05;6.32;;;24.20;57.00;;;;;;5095957;28;20028;-36
2021/06/17 00:02:27;;;;;;;11.45;6.00;;;24.10;57.00;;;;;;5095522;28;20069;-36
2021/06/17 00:04:53;;;;;;;6.57;5.82;;;24.10;57.00;;;;;;5095340;28;20111;-36
2021/06/17 00:07:19;;;;;;;10.40;7.03;;;24.00;57.20;;;;;;5093877;28;20123;-36
2021/06/17 00:09:46;;;;;;;10.15;6.05;;;24.00;57.20;;;;;;5094062;28;20018;-37
2021/06/17 00:12:12;;;;;;;6.00;5.43;;;24.00;57.30;;;;;;5095153;28;20024;-36
2021/06/17 00:14:37;;;;;;;6.28;5.63;;;23.90;57.50;;;;;;5095373;28;20107;-36
2021/06/17 00:17:04;;;;;;;7.28;6.13;;;23.80;57.80;;;;;;5093795;28;20028;-36
2021/06/17 00:19:30;;;;;;;9.15;6.15;;;23.80;58.00;;;;;;5095622;28;20020;-36
2021/06/17 00:21:56;;;;;;;10.55;6.55;;;23.80;57.70;;;;;;5095196;28;20035;-36
2021/06/17 00:24:22;;;;;;;7.85;5.47;;;23.80;57.80;;;;;;5094935;28;20103;-36
2021/06/17 00:26:50;;;;;;;10.57;5.95;;;23.90;57.20;;;;;;5094846;28;20039;-36
2021/06/17 00:29:19;;;;;;;6.57;5.75;;;23.80;57.60;;;;;;5095011;28;20024;-36
2021/06/17 00:31:45;;;;;;;8.50;6.47;;;23.80;57.70;;;;;;5094337;28;20047;-36
2021/06/17 00:34:11;;;;;;;10.25;6.35;;;23.80;57.50;;;;;;5094797;28;20468;-36
2021/06/17 00:36:38;;;;;;;9.07;6.63;;;23.80;57.50;;;;;;5094682;28;20024;-37
2021/06/17 00:39:06;;;;;;;7.32;5.15;;;23.80;57.20;;;;;;5093274;28;20502;-43
2021/06/17 00:41:34;;;;;;;9.05;6.07;;;23.80;56.70;;;;;;5094859;28;20455;-36
2021/06/17 00:43:59;;;;;;;7.50;5.80;;;23.90;56.90;;;;;;5094714;28;20039;-36
2021/06/17 00:46:25;;;;;;;8.93;5.68;;;23.80;57.10;;;;;;5094263;28;20020;-36
2021/06/17 00:48:52;;;;;;;8.85;6.45;;;23.80;57.50;;;;;;5093116;28;20080;-36
2021/06/17 00:51:18;;;;;;;11.52;6.25;;;23.70;57.60;;;;;;5094474;28;20044;-36
2021/06/17 00:53:43;;;;;;;9.10;6.30;;;23.70;57.60;;;;;;5094756;28;20463;-36
2021/06/17 00:56:09;;;;;;;7.78;5.93;;;23.70;57.60;;;;;;5094552;28;20028;-36
2021/06/17 00:58:35;;;;;;;13.63;6.70;;;23.70;57.70;;;;;;5094588;28;20026;-36
2021/06/17 01:01:01;;;;;;;8.32;5.70;;;23.60;57.70;;;;;;5094370;28;20035;-36
2021/06/17 01:03:26;;;;;;;6.18;5.57;;;23.70;57.50;;;;;;5093929;28;20053;-36
2021/06/17 01:05:53;;;;;;;6.93;5.63;;;23.60;58.00;;;;;;5092677;28;20027;-36
2021/06/17 01:08:40;;;;;;;7.97;6.60;;;23.50;58.30;;;;;;5092594;28;20020;-36
2021/06/17 01:11:28;;;;;;;10.27;5.90;;;23.50;58.60;;;;;;5093828;28;20485;-36
2021/06/17 01:14:06;;;;;;;8.90;5.70;;;23.40;59.00;;;;;;5094155;28;20458;-36
2021/06/17 01:16:40;;;;;;;8.68;5.45;;;23.40;58.70;;;;;;5094350;28;20028;-36
2021/06/17 01:19:31;;;;;;;9.38;6.30;;;23.30;59.10;;;;;;5093874;28;20460;-36
2021/06/17 01:21:56;;;;;;;7.97;6.40;;;23.30;59.00;;;;;;5093903;28;20478;-36
2021/06/17 01:24:44;;;;;;;7.85;5.22;;;23.30;58.90;;;;;;5092328;28;20024;-36
2021/06/17 01:27:57;;;;;;;7.82;5.97;;;23.30;59.20;;;;;;5092395;28;20024;-36
2021/06/17 01:30:25;;;;;;;6.97;6.28;;;23.20;59.60;;;;;;5077394;28;20075;-36
2021/06/17 01:32:58;;;;;;;9.65;6.63;;;23.20;60.10;;;;;;5093929;28;20467;-36
2021/06/17 01:35:26;;;;;;;9.30;6.75;;;23.10;60.50;;;;;;5092416;28;20073;-36
2021/06/17 01:37:58;;;;;;;12.55;6.82;;;23.00;61.00;;;;;;5093728;28;20043;-36
2021/06/17 01:40:29;;;;;;;8.20;6.05;;;23.00;60.80;;;;;;5093698;28;20031;-36
2021/06/17 01:42:56;;;;;;;10.90;8.73;;;22.90;61.00;;;;;;5093526;28;20112;-36
2021/06/17 01:45:25;;;;;;;9.73;6.07;;;22.80;61.60;;;;;;5093924;28;20462;-36
2021/06/17 01:47:52;;;;;;;9.73;7.05;;;22.70;61.90;;;;;;5093417;28;20504;-36
2021/06/17 01:50:22;;;;;;;9.32;7.35;;;22.70;62.00;;;;;;5093554;28;20066;-36
2021/06/17 01:52:50;;;;;;;6.93;6.10;;;22.70;62.20;;;;;;5093597;28;20383;-36
2021/06/17 01:55:16;;;;;;;9.30;7.45;;;22.60;62.30;;;;;;5093529;28;20024;-36
2021/06/17 01:57:43;;;;;;;10.52;6.00;;;22.60;62.50;;;;;;5093634;28;20024;-36
2021/06/17 02:00:10;;;;;;;12.30;7.25;;;22.50;62.70;;;;;;5094304;28;20031;-36
2021/06/17 02:02:37;;;;;;;14.48;6.97;;;22.50;62.30;;;;;;5093728;28;20068;-36
2021/06/17 02:05:04;;;;;;;9.77;6.72;;;22.50;62.30;;;;;;5093615;28;20024;-36
2021/06/17 02:07:30;;;;;;;11.73;8.20;;;22.50;62.60;;;;;;5093175;28;20488;-36
2021/06/17 02:09:56;;;;;;;8.30;6.18;;;22.50;62.90;;;;;;5093346;28;20099;-36
2021/06/17 02:12:22;;;;;;;6.80;6.15;;;22.50;62.70;;;;;;5093640;28;20028;-36
2021/06/17 02:14:49;;;;;;;9.70;6.90;;;22.50;63.00;;;;;;5093566;28;20077;-36
2021/06/17 02:17:16;;;;;;;7.80;6.68;;;22.40;63.00;;;;;;5093817;28;20112;-36
2021/06/17 02:19:43;;;;;;;7.40;6.50;;;22.30;63.40;;;;;;5094008;28;20028;-36
2021/06/17 02:22:11;;;;;;;8.90;6.85;;;22.30;63.20;;;;;;5093202;28;20028;-35
2021/06/17 02:24:38;;;;;;;9.88;6.88;;;22.40;63.10;;;;;;5093192;28;20380;-36
2021/06/17 02:27:09;;;;;;;11.23;7.22;;;22.30;63.30;;;;;;5091852;28;20028;-37
2021/06/17 02:29:56;;;;;;;9.88;7.18;;;22.10;64.00;;;;;;5093825;28;20016;-37
2021/06/17 02:32:25;;;;;;;8.60;7.32;;;22.10;63.90;;;;;;5091794;28;20031;-36
2021/06/17 02:34:53;;;;;;;11.13;7.03;;;22.20;63.70;;;;;;5093799;28;20016;-37
2021/06/17 02:37:20;;;;;;;10.43;6.47;;;22.20;63.70;;;;;;5093046;28;20035;-37
2021/06/17 02:39:49;;;;;;;13.18;7.70;;;22.20;63.40;;;;;;5093466;28;20158;-36
2021/06/17 02:42:18;;;;;;;8.23;6.78;;;22.10;63.50;;;;;;5093077;28;20039;-36
2021/06/17 02:44:46;;;;;;;7.93;6.78;;;22.10;63.90;;;;;;5093526;28;20020;-36
2021/06/17 02:47:12;;;;;;;11.68;7.43;;;22.10;63.80;;;;;;5092715;28;20056;-36
2021/06/17 02:49:39;;;;;;;9.00;6.55;;;22.00;63.90;;;;;;5093316;28;20047;-36
2021/06/17 02:52:05;;;;;;;9.75;7.13;;;22.00;63.90;;;;;;5092934;28;20024;-36
2021/06/17 02:54:31;;;;;;;7.47;6.78;;;22.10;63.90;;;;;;5093690;28;20024;-36
2021/06/17 02:57:20;;;;;;;7.07;6.10;;;22.00;63.60;;;;;;5096677;28;20109;-36
2021/06/17 03:00:14;;;;;;;8.40;7.13;;;22.10;63.40;;;;;;5096698;28;20027;-36
2021/06/17 03:03:03;;;;;;;9.57;6.70;;;22.10;63.40;;;;;;5096682;28;20078;-36
2021/06/17 03:05:42;;;;;;;7.22;6.43;;;22.10;63.20;;;;;;5096429;28;20024;-37
2021/06/17 03:08:30;;;;;;;10.20;7.00;;;22.00;63.80;;;;;;5096414;28;20471;-36
2021/06/17 03:10:59;;;;;;;9.70;6.82;;;21.90;63.70;;;;;;5096811;28;20095;-36
2021/06/17 03:13:29;;;;;;;10.23;7.20;;;21.80;64.10;;;;;;5096496;28;20028;-36
2021/06/17 03:15:55;;;;;;;9.63;6.72;;;21.80;63.90;;;;;;5096378;28;20016;-36
2021/06/17 03:18:22;;;;;;;11.43;6.63;;;21.90;63.90;;;;;;5095196;28;20039;-37
2021/06/17 03:20:49;;;;;;;7.72;6.40;;;21.80;64.20;;;;;;5095297;28;20024;-35
2021/06/17 03:23:20;;;;;;;8.75;6.85;;;21.90;64.10;;;;;;5095015;28;20107;-35
2021/06/17 03:25:50;;;;;;;10.43;6.32;;;21.80;64.20;;;;;;5096092;28;20505;-36
2021/06/17 03:28:17;;;;;;;7.43;5.97;;;21.90;63.70;;;;;;5096354;28;20023;-37
2021/06/17 03:30:48;;;;;;;8.60;7.00;;;21.90;64.10;;;;;;5096301;28;20030;-36
2021/06/17 03:33:17;;;;;;;11.73;6.65;;;21.80;64.20;;;;;;5095154;28;20432;-36
2021/06/17 03:35:45;;;;;;;13.60;7.50;;;21.90;64.10;;;;;;5096416;28;20430;-36
2021/06/17 03:38:12;;;;;;;10.55;6.57;;;21.80;64.30;;;;;;5095920;28;20388;-36
2021/06/17 03:40:39;;;;;;;10.40;7.88;;;21.80;64.50;;;;;;5095793;28;20074;-36
2021/06/17 03:43:06;;;;;;;8.90;7.32;;;21.90;63.90;;;;;;5095666;28;20423;-36
2021/06/17 03:45:33;;;;;;;7.03;6.32;;;21.80;64.10;;;;;;5095741;28;20027;-36
2021/06/17 03:48:00;;;;;;;6.93;6.22;;;21.80;64.20;;;;;;5095300;28;20047;-36
2021/06/17 03:50:26;;;;;;;11.00;6.50;;;21.80;64.30;;;;;;5095641;28;20024;-36
2021/06/17 03:52:57;;;;;;;9.45;7.13;;;21.80;64.20;;;;;;5095915;28;20048;-36
2021/06/17 03:55:23;;;;;;;9.82;6.95;;;21.80;64.30;;;;;;5094298;28;20103;-37
2021/06/17 03:57:52;;;;;;;8.88;6.75;;;22.00;64.00;;;;;;5095404;28;20024;-36
2021/06/17 04:00:18;;;;;;;8.85;6.68;;;21.90;64.30;;;;;;5095417;28;20097;-36
2021/06/17 04:02:54;;;;;;;9.52;6.57;;;21.90;64.00;;;;;;5095386;28;20061;-35
2021/06/17 04:05:20;;;;;;;9.45;6.05;;;21.90;64.10;;;;;;5095505;28;20035;-36
2021/06/17 04:07:50;;;;;;;12.25;6.93;;;22.00;64.00;;;;;;5095579;28;20464;-36
2021/06/17 04:10:17;;;;;;;7.35;6.35;;;22.10;63.70;;;;;;5095557;28;20018;-35
2021/06/17 04:12:45;;;;;;;10.43;6.50;;;22.10;63.30;;;;;;5095381;28;20093;-36
2021/06/17 04:15:11;;;;;;;14.18;7.05;;;22.20;63.00;;;;;;5095056;28;20379;-36
2021/06/17 04:17:48;;;;;;;10.55;6.93;;;22.40;62.40;;;;;;5095048;28;20024;-36
2021/06/17 04:20:21;;;;;;;12.38;7.38;;;22.30;62.50;;;;;;5095282;28;20032;-36
2021/06/17 04:22:50;;;;;;;12.93;6.45;;;22.30;62.30;;;;;;5093700;28;20027;-36
2021/06/17 04:25:19;;;;;;;10.02;6.50;;;22.40;61.80;;;;;;5094946;28;20043;-36
2021/06/17 04:27:46;;;;;;;9.20;6.25;;;22.50;62.40;;;;;;5093537;28;20082;-36
2021/06/17 04:30:12;;;;;;;10.50;6.47;;;22.50;62.20;;;;;;5094839;28;20069;-36
2021/06/17 04:32:44;;;;;;;11.82;6.28;;;22.50;62.90;;;;;;5094835;28;20024;-36
2021/06/17 04:35:13;;;;;;;7.93;5.72;;;22.50;62.40;;;;;;5093505;28;20119;-35
2021/06/17 04:37:40;;;;;;;8.77;6.45;;;22.60;61.90;;;;;;5094737;28;20031;-36
2021/06/17 04:40:08;;;;;;;8.02;6.55;;;22.60;62.10;;;;;;5093560;28;20046;-36
2021/06/17 04:42:34;;;;;;;7.60;5.68;;;22.60;62.40;;;;;;5094650;28;20032;-36
2021/06/17 04:45:00;;;;;;;8.10;5.55;;;22.80;61.50;;;;;;5094762;28;20100;-36
2021/06/17 04:47:26;;;;;;;10.20;5.75;;;22.80;60.90;;;;;;5094448;28;20182;-36
2021/06/17 04:49:51;;;;;;;6.10;5.53;;;23.00;60.90;;;;;;5094721;28;20020;-35
2021/06/17 04:52:30;;;;;;;9.88;6.10;;;23.00;60.60;;;;;;5094596;28;20069;-36
2021/06/17 04:54:56;;;;;;;10.10;5.90;;;23.10;60.20;;;;;;5094660;28;20499;-36
2021/06/17 04:57:22;;;;;;;10.82;6.05;;;23.20;60.10;;;;;;5094320;28;20028;-36
2021/06/17 04:59:47;;;;;;;10.77;5.47;;;23.20;59.30;;;;;;5094108;28;20035;-37
2021/06/17 05:02:13;;;;;;;7.00;5.22;;;23.30;58.50;;;;;;5094111;28;20103;-36
2021/06/17 05:04:39;;;;;;;6.90;5.15;;;23.40;58.60;;;;;;5093963;28;20420;-36
2021/06/17 05:12:18;;;;;;;13.40;6.38;;;23.60;57.90;;;;;;5094186;28;20027;-36
2021/06/17 05:14:43;;;;;;;9.55;5.35;;;23.70;58.20;;;;;;5093799;28;20024;-36
2021/06/17 05:17:09;;;;;;;9.45;4.82;;;23.80;57.10;;;;;;5093242;28;20024;-35
2021/06/17 05:19:35;;;;;;;7.25;5.28;;;24.00;56.60;;;;;;5092436;28;20061;-37
2021/06/17 05:22:01;;;;;;;13.70;6.43;;;23.90;57.00;;;;;;5093831;28;20024;-35
2021/06/17 05:24:27;;;;;;;14.73;6.78;;;24.00;56.60;;;;;;5093760;28;20016;-36
2021/06/17 05:26:53;;;;;;;11.52;5.00;;;24.00;56.50;;;;;;5093607;28;20080;-39
2021/06/17 05:29:19;;;;;;;15.75;5.53;;;24.10;55.80;;;;;;5093706;28;20024;-36
2021/06/17 05:31:45;;;;;;;11.52;5.10;;;24.30;55.80;;;;;;5093532;28;20474;-35
2021/06/17 05:34:11;;;;;;;10.23;4.60;;;24.40;55.30;;;;;;5093767;28;20073;-36
2021/06/17 05:36:37;;;;;;;13.70;5.22;;;24.40;55.60;;;;;;5092044;28;20421;-37
2021/06/17 05:39:04;;;;;;;13.90;5.15;;;24.50;54.90;;;;;;5098460;28;20051;-37
2021/06/17 05:41:29;;;;;;;8.68;5.07;;;24.60;54.50;;;;;;5094167;28;20452;-35
2021/06/17 05:43:55;;;;;;;12.05;5.88;;;24.80;54.00;;;;;;5093595;28;20034;-35
2021/06/17 05:46:21;;;;;;;8.15;5.18;;;24.70;54.00;;;;;;5093445;28;20468;-35
2021/06/17 05:48:46;;;;;;;18.17;5.68;;;24.80;54.30;;;;;;5093338;28;20051;-36
2021/06/17 05:51:12;;;;;;;14.25;5.55;;;24.80;54.40;;;;;;5093477;28;20036;-35
2021/06/17 05:53:38;;;;;;;12.25;4.78;;;24.90;54.20;;;;;;5091874;28;20408;-36
2021/06/17 05:56:04;;;;;;;7.47;4.95;;;25.20;52.10;;;;;;5093684;28;20051;-36
2021/06/17 05:58:30;;;;;;;9.60;4.53;;;25.20;52.00;;;;;;5093978;28;20051;-35
2021/06/17 06:00:56;;;;;;;10.77;4.57;;;25.30;51.70;;;;;;5093400;28;20471;-35
2021/06/17 06:03:21;;;;;;;8.90;4.97;;;25.40;51.30;;;;;;5093430;28;20040;-36
2021/06/17 06:05:47;;;;;;;8.80;3.97;;;25.50;50.60;;;;;;5093538;28;20047;-36
2021/06/17 06:08:13;;;;;;;12.65;5.88;;;25.60;51.00;;;;;;5091986;28;20028;-36
2021/06/17 06:10:41;;;;;;;7.13;4.28;;;25.70;51.20;;;;;;5093439;28;20020;-35
2021/06/17 06:13:07;;;;;;;8.02;4.13;;;25.80;50.40;;;;;;5094369;28;20051;-34
2021/06/17 06:15:33;;;;;;;8.98;5.78;;;26.10;49.20;;;;;;5093545;28;20028;-35
2021/06/17 06:18:11;;;;;;;7.25;4.13;;;26.30;49.60;;;;;;5094467;28;20024;-35
2021/06/17 06:20:39;;;;;;;8.75;4.20;;;26.30;48.20;;;;;;5096402;28;20032;-35
2021/06/17 06:23:06;;;;;;;13.30;6.05;;;26.40;47.40;;;;;;5093573;28;20024;-36
2021/06/17 06:25:33;;;;;;;12.23;4.43;;;26.80;47.10;;;;;;5075672;28;20407;-34
2021/06/17 06:28:00;;;;;;;12.15;5.18;;;26.80;47.10;;;;;;5092138;28;20024;-36
2021/06/17 06:30:25;;;;;;;26.48;5.65;;;26.80;46.90;;;;;;5093757;28;20020;-35
2021/06/17 06:32:51;;;;;;;5.57;4.03;;;26.80;47.60;;;;;;5096730;28;20073;-35
2021/06/17 06:35:17;;;;;;;8.60;4.57;;;27.00;46.80;;;;;;5095416;28;20090;-36
2021/06/17 06:37:52;;;;;;;7.30;4.28;;;27.00;46.90;;;;;;5097050;28;20028;-35
2021/06/17 06:40:24;;;;;;;7.40;4.10;;;26.90;46.90;;;;;;5099489;28;20028;-35
2021/06/17 06:42:52;;;;;;;7.72;4.18;;;27.20;45.90;;;;;;5097625;28;20434;-36
2021/06/17 06:45:18;;;;;;;10.20;4.03;;;27.40;45.30;;;;;;5097633;28;20063;-35
2021/06/17 06:47:44;;;;;;;8.07;4.55;;;27.50;45.50;;;;;;5096506;28;20567;-35
2021/06/17 06:50:10;;;;;;;12.15;6.57;;;27.40;45.80;;;;;;5096252;28;20142;-36
2021/06/17 06:52:37;;;;;;;7.82;4.28;;;27.50;45.70;;;;;;5096769;28;20382;-35
2021/06/17 06:55:05;;;;;;;15.63;6.57;;;27.80;44.60;;;;;;5096142;28;20379;-38
2021/06/17 06:57:30;;;;;;;5.78;4.57;;;27.70;44.90;;;;;;5096086;28;20024;-35
2021/06/17 06:59:57;;;;;;;10.27;4.03;;;27.80;45.00;;;;;;5095148;28;20047;-36
2021/06/17 07:02:22;;;;;;;7.35;4.25;;;28.10;44.40;;;;;;5095248;28;20074;-37
2021/06/17 07:04:48;;;;;;;13.35;4.45;;;28.30;44.40;;;;;;5096518;28;20035;-41
2021/06/17 07:07:14;;;;;;;8.45;3.63;;;28.30;43.60;;;;;;5096506;28;20111;-41
2021/06/17 07:09:40;;;;;;;11.63;3.95;;;28.30;43.90;;;;;;5095037;28;20020;-41
2021/06/17 07:12:06;;;;;;;11.65;4.13;;;28.50;42.80;;;;;;5095872;28;20020;-37
2021/06/17 07:14:33;;;;;;;5.22;4.00;;;28.50;43.60;;;;;;5095840;28;20027;-38
2021/06/17 07:16:59;;;;;;;9.18;4.50;;;28.50;43.70;;;;;;5096256;28;20020;-38
2021/06/17 07:19:25;;;;;;;7.03;3.63;;;28.80;43.10;;;;;;5095981;28;20142;-37
2021/06/17 07:21:52;;;;;;;20.42;4.28;;;28.80;42.70;;;;;;5095990;28;20112;-36
2021/06/17 07:24:18;;;;;;;5.20;3.78;;;28.90;42.70;;;;;;5094276;28;20021;-36
2021/06/17 07:26:45;;;;;;;11.70;4.60;;;29.70;41.40;;;;;;5096434;28;20028;-37
2021/06/17 07:29:11;;;;;;;8.90;3.80;;;29.70;40.70;;;;;;5095585;28;20036;-40
2021/06/17 07:31:37;;;;;;;6.07;4.50;;;30.70;38.90;;;;;;5095506;28;20031;-37
2021/06/17 07:34:04;;;;;;;5.05;3.67;;;30.60;39.20;;;;;;5095719;28;20068;-38
2021/06/17 07:36:30;;;;;;;5.93;4.30;;;31.00;38.60;;;;;;5095759;28;20024;-37
2021/06/17 07:38:56;;;;;;;6.63;3.70;;;30.30;38.90;;;;;;5095295;28;20097;-38
2021/06/17 07:41:22;;;;;;;9.15;3.42;;;29.80;40.00;;;;;;5095807;28;20472;-38
2021/06/17 07:43:48;;;;;;;6.85;3.40;;;30.20;39.10;;;;;;5094195;28;20020;-37
2021/06/17 07:46:14;;;;;;;6.90;3.83;;;30.80;38.50;;;;;;5095352;28;20498;-37
2021/06/17 07:48:40;;;;;;;5.47;4.07;;;31.00;38.60;;;;;;5095422;28;20044;-38
2021/06/17 07:51:07;;;;;;;4.18;3.78;;;31.30;38.00;;;;;;5095770;28;20027;-37
2021/06/17 07:53:34;;;;;;;7.18;3.30;;;30.80;38.60;;;;;;5094122;28;20030;-40
2021/06/17 07:56:00;;;;;;;7.65;3.80;;;31.10;38.10;;;;;;5095539;28;20047;-39
2021/06/17 07:58:26;;;;;;;10.45;3.80;;;30.80;38.50;;;;;;5094370;28;20020;-39
2021/06/17 08:00:52;;;;;;;5.22;3.30;;;31.30;37.40;;;;;;5094907;28;20024;-38
2021/06/17 08:03:17;;;;;;;11.70;3.65;;;31.30;37.50;;;;;;5093695;28;20035;-39
2021/06/17 08:05:43;;;;;;;12.40;4.50;;;31.10;38.00;;;;;;5076719;28;20024;-38
2021/06/17 08:08:09;;;;;;;8.25;3.47;;;31.10;38.70;;;;;;5094999;28;20028;-39
2021/06/17 08:10:35;;;;;;;5.30;3.85;;;31.80;36.70;;;;;;5095353;28;20095;-37
2021/06/17 08:13:02;;;;;;;7.63;3.53;;;31.30;37.60;;;;;;5093277;28;20024;-37
2021/06/17 08:15:28;;;;;;;5.88;4.18;;;31.10;38.60;;;;;;5094290;28;20110;-39
2021/06/17 08:17:53;;;;;;;9.07;4.18;;;31.90;37.10;;;;;;5095773;28;20032;-38
2021/06/17 08:20:22;;;;;;;10.65;4.53;;;32.30;35.90;;;;;;5094868;28;20024;-39
2021/06/17 08:22:48;;;;;;;7.70;3.67;;;32.60;35.30;;;;;;5095549;28;20031;-40
2021/06/17 08:25:14;;;;;;;15.40;4.28;;;32.30;35.00;;;;;;5095061;28;20024;-38
2021/06/17 08:27:40;;;;;;;9.13;4.35;;;32.00;35.90;;;;;;5094774;28;20070;-37
2021/06/17 08:30:10;;;;;;;7.43;3.60;;;33.20;34.50;;;;;;5095675;28;20031;-37
2021/06/17 08:32:36;;;;;;;8.25;3.65;;;32.60;34.00;;;;;;5094205;28;20444;-38
2021/06/17 08:35:02;;;;;;;6.47;4.03;;;32.70;34.60;;;;;;5093409;28;20027;-38
2021/06/17 08:37:28;;;;;;;6.43;3.70;;;32.70;34.50;;;;;;5095339;28;20124;-39
2021/06/17 08:39:55;;;;;;;9.55;4.88;;;33.20;33.80;;;;;;5094646;28;20387;-38
2021/06/17 08:42:31;;;;;;;6.10;3.72;;;32.70;34.10;;;;;;5093230;28;20070;-39
2021/06/17 08:44:58;;;;;;;10.98;3.80;;;32.90;34.00;;;;;;5094730;28;20032;-40
2021/06/17 08:47:25;;;;;;;9.40;5.88;;;33.50;32.90;;;;;;5094330;28;20105;-39
2021/06/17 08:49:54;;;;;;;7.95;4.13;;;33.80;32.00;;;;;;5094651;28;20024;-39
2021/06/17 08:52:20;;;;;;;15.40;8.45;;;34.30;31.60;;;;;;5092475;28;20035;-38
2021/06/17 08:54:47;;;;;;;7.95;3.60;;;34.70;30.60;;;;;;5092747;28;20629;-38
2021/06/17 08:57:14;;;;;;;4.40;3.40;;;33.80;31.60;;;;;;5093892;28;20027;-38
2021/06/17 08:59:41;;;;;;;5.45;3.58;;;33.70;32.30;;;;;;5094042;28;20461;-38
2021/06/17 09:02:07;;;;;;;4.75;3.28;;;34.50;31.60;;;;;;5093957;28;20149;-36
2021/06/17 09:04:35;;;;;;;4.40;3.05;;;34.30;30.50;;;;;;5091922;28;20536;-37
2021/06/17 09:07:04;;;;;;;5.15;3.00;;;34.10;31.00;;;;;;5093511;28;20073;-37
2021/06/17 15:09:46;;;;;;;6.07;4.70;;;35.70;30.60;;;;;;5170873;27;99383;-37
2021/06/17 15:12:12;;;;;;;8.30;5.38;;;35.60;30.70;;;;;;5150831;27;20355;-38
2021/06/17 15:14:38;;;;;;;8.80;5.18;;;35.90;30.80;;;;;;5152215;27;20099;-38
2021/06/17 15:17:05;;;;;;;6.97;5.07;;;36.30;30.20;;;;;;5152514;27;20450;-38
2021/06/17 15:19:31;;;;;;;7.85;5.22;;;35.60;30.60;;;;;;5151619;27;20027;-37
2021/06/17 15:21:57;;;;;;;5.68;5.10;;;35.60;31.70;;;;;;5137311;27;20072;-37
2021/06/17 15:24:23;;;;;;;7.70;5.35;;;35.70;30.90;;;;;;5131434;28;20107;-37
2021/06/17 15:26:48;;;;;;;7.93;4.40;;;35.60;31.40;;;;;;5131559;28;20044;-37
2021/06/17 15:29:14;;;;;;;7.72;5.80;;;35.40;31.90;;;;;;5131038;27;20491;-37
2021/06/17 15:31:41;;;;;;;12.05;5.25;;;35.60;30.90;;;;;;5131333;28;20027;-37
2021/06/17 15:34:06;;;;;;;7.88;4.78;;;35.60;31.50;;;;;;5130112;28;20035;-37
2021/06/17 15:36:34;;;;;;;10.00;4.93;;;35.70;31.20;;;;;;5129654;28;20042;-38
2021/06/17 15:39:01;;;;;;;11.60;6.28;;;35.30;31.60;;;;;;5112343;28;20131;-37
2021/06/17 15:41:27;;;;;;;8.70;5.03;;;35.30;31.00;;;;;;5129145;28;20020;-36
2021/06/17 15:43:52;;;;;;;11.43;6.65;;;35.50;30.90;;;;;;5130965;27;20506;-37
2021/06/17 15:46:18;;;;;;;7.13;4.82;;;35.70;30.60;;;;;;5130581;28;20028;-37
2021/06/17 15:48:44;;;;;;;8.52;5.13;;;36.00;30.30;;;;;;5131079;28;20027;-39
2021/06/17 15:51:10;;;;;;;5.88;5.38;;;36.00;30.70;;;;;;5129312;28;20027;-37
2021/06/17 15:53:36;;;;;;;8.55;5.35;;;36.40;30.50;;;;;;5129522;28;20076;-39
2021/06/17 15:56:02;;;;;;;9.07;5.95;;;36.90;30.20;;;;;;5112843;28;20052;-36
2021/06/17 15:58:28;;;;;;;10.45;4.90;;;37.60;29.70;;;;;;5131145;28;20063;-36
2021/06/17 16:00:53;;;;;;;12.73;4.60;;;37.30;30.40;;;;;;5130999;27;20035;-37
2021/06/17 16:03:19;;;;;;;9.38;5.65;;;36.70;31.60;;;;;;5132128;28;20027;-37
2021/06/17 16:05:45;;;;;;;11.45;5.38;;;36.50;31.80;;;;;;5129491;28;20023;-37
2021/06/17 16:08:12;;;;;;;6.50;5.05;;;36.30;32.20;;;;;;5130479;27;20455;-36
2021/06/17 16:10:39;;;;;;;12.95;4.97;;;36.30;32.30;;;;;;5129282;28;20016;-39
2021/06/17 16:13:06;;;;;;;6.22;4.55;;;37.50;30.30;;;;;;5129758;28;20023;-36
2021/06/17 16:15:32;;;;;;;11.65;5.88;;;37.80;29.30;;;;;;5130402;28;20057;-38
2021/06/17 16:17:58;;;;;;;8.30;4.80;;;37.10;30.20;;;;;;5130181;27;20023;-37
2021/06/17 16:20:27;;;;;;;13.15;4.70;;;37.40;29.90;;;;;;5120110;28;20080;-37
2021/06/17 16:22:53;;;;;;;13.63;4.70;;;38.00;29.10;;;;;;5116593;28;20020;-37
2021/06/17 16:25:20;;;;;;;8.75;5.10;;;37.70;29.10;;;;;;5116742;28;20107;-39
2021/06/17 16:27:47;;;;;;;10.50;5.07;;;37.50;29.50;;;;;;5115565;28;20028;-37
2021/06/17 16:30:14;;;;;;;8.23;4.65;;;38.00;28.90;;;;;;5115056;28;20397;-38
2021/06/17 16:32:39;;;;;;;9.48;4.30;;;38.30;28.30;;;;;;5114824;28;20429;-37
2021/06/17 16:35:07;;;;;;;14.10;5.40;;;38.80;28.00;;;;;;5115836;28;20027;-38
2021/06/17 16:37:33;;;;;;;9.32;4.30;;;38.50;28.20;;;;;;5115929;28;20038;-37
2021/06/17 16:39:59;;;;;;;8.32;4.63;;;39.00;27.80;;;;;;5116399;28;20111;-37
2021/06/17 16:42:26;;;;;;;6.63;4.65;;;38.80;27.80;;;;;;5115532;28;20411;-36
2021/06/17 16:44:52;;;;;;;10.23;4.85;;;38.40;28.10;;;;;;5117060;28;20024;-37
2021/06/17 16:47:19;;;;;;;9.13;4.40;;;38.40;28.30;;;;;;5116112;28;20030;-38
2021/06/17 16:49:44;;;;;;;7.93;4.57;;;38.30;28.40;;;;;;5116328;28;20489;-38
2021/06/17 16:52:12;;;;;;;8.23;4.63;;;37.30;29.90;;;;;;5116200;28;20024;-36
2021/06/17 18:02:42;;;;;;;9.05;4.82;;;32.50;38.50;;;;;;5114655;27;20370;-37
2021/06/17 18:05:09;;;;;;;12.80;5.35;;;32.40;38.70;;;;;;5111067;28;20039;-37
2021/06/17 18:07:38;;;;;;;7.82;4.03;;;32.50;38.80;;;;;;5111460;28;20484;-37
2021/06/17 18:10:06;;;;;;;12.70;4.20;;;32.40;38.90;;;;;;5111809;28;20085;-37
2021/06/17 18:12:32;;;;;;;6.93;4.15;;;32.40;39.10;;;;;;5110943;28;20483;-36
2021/06/17 18:14:59;;;;;;;11.93;3.22;;;32.40;39.10;;;;;;5109450;28;20023;-39
2021/06/17 18:17:26;;;;;;;12.73;4.90;;;32.30;39.40;;;;;;5110971;28;20051;-36
2021/06/17 18:19:55;;;;;;;10.68;3.72;;;32.00;39.60;;;;;;5110559;28;20031;-37
2021/06/17 18:22:21;;;;;;;8.05;3.13;;;32.00;40.10;;;;;;5110822;28;20032;-37
2021/06/17 18:24:49;;;;;;;9.57;3.47;;;31.90;40.00;;;;;;5110768;28;20051;-37
2021/06/17 18:27:18;;;;;;;7.75;3.20;;;31.80;40.20;;;;;;5111017;28;20157;-37
2021/06/17 18:29:44;;;;;;;7.15;3.13;;;31.80;40.10;;;;;;5109245;28;20028;-37
2021/06/17 18:32:11;;;;;;;12.55;3.53;;;32.00;40.00;;;;;;5110665;28;20016;-36
2021/06/17 18:34:37;;;;;;;8.25;3.13;;;31.80;40.20;;;;;;5110421;28;20023;-37
2021/06/17 18:37:04;;;;;;;7.75;2.80;;;31.80;40.10;;;;;;5110616;28;20028;-37
2021/06/17 18:39:30;;;;;;;5.78;3.05;;;31.80;40.40;;;;;;5110629;28;20035;-37
2021/06/17 18:41:57;;;;;;;19.48;3.40;;;31.70;40.60;;;;;;5110665;28;20036;-38
2021/06/17 18:44:25;;;;;;;7.07;2.72;;;31.60;40.90;;;;;;5110546;28;20379;-37
2021/06/17 18:46:51;;;;;;;10.52;3.50;;;31.50;41.00;;;;;;5110581;28;20024;-37
2021/06/17 18:49:17;;;;;;;8.35;3.72;;;31.40;41.00;;;;;;5110802;28;20035;-37
2021/06/17 18:51:43;;;;;;;7.47;3.40;;;31.50;40.90;;;;;;5110369;28;20111;-36
2021/06/17 18:54:09;;;;;;;15.00;4.00;;;31.40;40.80;;;;;;5110463;28;20056;-36
2021/06/17 18:56:34;;;;;;;9.90;3.33;;;31.30;40.90;;;;;;5110668;28;20425;-36
2021/06/17 18:59:00;;;;;;;7.28;3.65;;;31.30;40.90;;;;;;5109918;28;20024;-36
2021/06/17 19:01:27;;;;;;;8.30;3.40;;;31.20;40.90;;;;;;5109615;28;20044;-36
2021/06/17 19:03:53;;;;;;;10.88;3.30;;;31.20;41.00;;;;;;5109606;28;20047;-36
2021/06/17 19:06:19;;;;;;;11.55;4.78;;;31.10;41.20;;;;;;5109944;28;20031;-37
2021/06/17 19:08:45;;;;;;;11.35;3.17;;;31.10;41.30;;;;;;5109821;28;20024;-37
2021/06/17 19:11:12;;;;;;;7.88;3.13;;;31.00;41.50;;;;;;5109679;28;20543;-37
2021/06/17 19:13:39;;;;;;;7.68;2.83;;;31.00;41.60;;;;;;5097245;28;20476;-37
2021/06/17 19:16:05;;;;;;;8.80;3.15;;;30.80;41.80;;;;;;5094814;28;20024;-37
2021/06/17 19:18:31;;;;;;;4.32;2.65;;;30.80;42.00;;;;;;5094761;28;20034;-38
2021/06/17 19:20:56;;;;;;;11.05;3.20;;;30.80;42.10;;;;;;5095946;28;20112;-38
2021/06/17 19:23:22;;;;;;;5.97;2.83;;;30.70;42.50;;;;;;5097066;28;20583;-37
2021/06/17 19:25:51;;;;;;;9.75;3.20;;;30.50;42.90;;;;;;5095968;28;20046;-41
2021/06/17 19:28:18;;;;;;;11.45;5.13;;;30.40;43.00;;;;;;5094514;28;20020;-36
2021/06/17 19:30:45;;;;;;;8.70;2.88;;;30.30;43.40;;;;;;5096101;28;20059;-37
2021/06/17 19:33:11;;;;;;;5.95;2.60;;;30.30;43.50;;;;;;5094968;28;20060;-37
2021/06/17 19:35:37;;;;;;;10.93;2.67;;;30.20;43.30;;;;;;5096146;28;20036;-36
2021/06/17 19:38:05;;;;;;;6.53;3.25;;;30.20;43.60;;;;;;5096559;28;20028;-36
2021/06/17 19:40:32;;;;;;;5.82;2.47;;;30.00;44.00;;;;;;5096103;28;20024;-37
2021/06/17 19:42:58;;;;;;;7.75;2.95;;;30.00;43.70;;;;;;5095643;28;20112;-36
2021/06/17 19:45:24;;;;;;;8.70;3.00;;;30.00;43.90;;;;;;5094645;28;20059;-36
2021/06/17 19:47:49;;;;;;;5.05;2.45;;;30.00;43.90;;;;;;5095550;28;20024;-36
2021/06/17 19:50:17;;;;;;;11.20;2.80;;;30.00;43.80;;;;;;5095928;28;20099;-37
2021/06/17 19:52:46;;;;;;;7.65;3.47;;;29.80;44.20;;;;;;5094028;28;20032;-37
2021/06/17 19:55:20;;;;;;;5.07;2.40;;;29.80;44.20;;;;;;5095449;28;20031;-38
2021/06/17 19:57:46;;;;;;;10.05;3.55;;;29.80;44.20;;;;;;5095615;28;20020;-36